Morgan Ray — WDF6085 — position and weather

sailwx.info

Track history (hours):
 
Tides and Currents Weather Stations Pressure Air Temp Water Temp Dewpoint Dewpoint Depression Visibility Wind Speed Wind Dir Waves Ship Positions

Morgan Ray

Owner: Daigle Towing Service LLC., Belle Chasse, LA. More information available from US FCC via Universal Licensing System and Coast Guard Vessel Documentation Center.

Last reported at 2017-Jan-22 14:09 UTC. Time now 2017-Jan-23 08:43 UTC.
Position N 30°15' W 093°15'.

Length 20 m; draft 2 m.

Type: Tug. MMSI: 367470470.

Date/timePositionNaut miles runAvg speedWind from/ knotsBaromVisibWave heightAir tempDewpointWater temp
2017-Jan-22 14:09N 30°15' W 093°15'0 0.0
2017-Jan-22 13:33N 30°15' W 093°15'0 0.0
2017-Jan-22 12:33N 30°15' W 093°15'0 0.0
2017-Jan-22 11:33N 30°15' W 093°15'0 0.0
2017-Jan-22 10:33N 30°15' W 093°15'0 0.0
2017-Jan-22 09:33N 30°15' W 093°15'0 0.0
2017-Jan-22 08:33N 30°15' W 093°15'0 0.0
2017-Jan-22 07:32N 30°15' W 093°15'0 0.0
2017-Jan-22 02:33N 30°15' W 093°15'0 0.0
2017-Jan-22 01:33N 30°15' W 093°15'0 0.0
2017-Jan-22 00:22N 30°15' W 093°15'0 0.0
2017-Jan-21 23:25N 30°15' W 093°15'0 0.0
2017-Jan-21 22:31N 30°15' W 093°15'0 0.0
2017-Jan-21 20:33N 30°15' W 093°15'0 0.0
2017-Jan-21 18:32N 30°15' W 093°15'0 0.0
2017-Jan-21 17:33N 30°15' W 093°15'0 0.1
2017-Jan-21 13:33N 30°14' W 093°15'0 0.0
2017-Jan-20 22:32N 30°15' W 093°15'0 0.0
2017-Jan-20 16:33N 30°14' W 093°15'1 1.2
2017-Jan-20 15:33N 30°13' W 093°15'0 0.0
2017-Jan-20 14:33N 30°13' W 093°15'0 0.0
2017-Jan-20 13:33N 30°13' W 093°15'0 0.0
2017-Jan-20 12:33N 30°13' W 093°15'0 0.0
2017-Jan-20 11:33N 30°13' W 093°15'0 0.0
2017-Jan-20 09:16N 30°13' W 093°15'2 2.4
2017-Jan-20 08:33N 30°12' W 093°17'5 4.8
2017-Jan-20 07:33N 30°08' W 093°20'4 3.6
2017-Jan-20 06:33N 30°05' W 093°18'1 1.4
2017-Jan-20 05:33N 30°04' W 093°16'0 0.0
2017-Jan-20 04:33N 30°04' W 093°16'0 0.0
2017-Jan-20 03:33N 30°04' W 093°16'0 0.0
2017-Jan-20 02:33N 30°04' W 093°16'3 2.7
2017-Jan-20 01:33N 30°02' W 093°15'5 4.6
2017-Jan-20 00:33N 29°58' W 093°12'45 5.5
2017-Jan-19 16:31N 29°51' W 092°21'5 5.4
2017-Jan-19 15:33N 29°48' W 092°16'5 5.3
2017-Jan-19 14:33N 29°47' W 092°10'6 6.4
2017-Jan-19 13:33N 29°49' W 092°03'6 6.3
2017-Jan-19 12:32N 29°51' W 091°56'62 3.1
2017-Jan-18 16:33N 29°32' W 090°48'6 5.9
2017-Jan-18 15:33N 29°36' W 090°43'6 5.6
2017-Jan-18 14:33N 29°35' W 090°36'  
Track history (hours):
 
Tides and Currents Weather Stations Pressure Air Temp Water Temp Dewpoint Dewpoint Depression Visibility Wind Speed Wind Dir Waves Ship Positions

Morgan Ray

Owner: Daigle Towing Service LLC., Belle Chasse, LA. More information available from US FCC via Universal Licensing System and Coast Guard Vessel Documentation Center.

Last reported at 2017-Jan-22 14:09 UTC. Time now 2017-Jan-23 08:43 UTC.
Position N 30°15' W 093°15'.

Length 20 m; draft 2 m.

Type: Tug. MMSI: 367470470.

Date/timePositionNaut miles runAvg speedWind from/ knotsBaromVisibWave heightAir tempDewpointWater temp
2017-Jan-22 14:09N 30°15' W 093°15'0 0.0
2017-Jan-22 13:33N 30°15' W 093°15'0 0.0
2017-Jan-22 12:33N 30°15' W 093°15'0 0.0
2017-Jan-22 11:33N 30°15' W 093°15'0 0.0
2017-Jan-22 10:33N 30°15' W 093°15'0 0.0
2017-Jan-22 09:33N 30°15' W 093°15'0 0.0
2017-Jan-22 08:33N 30°15' W 093°15'0 0.0
2017-Jan-22 07:32N 30°15' W 093°15'0 0.0
2017-Jan-22 02:33N 30°15' W 093°15'0 0.0
2017-Jan-22 01:33N 30°15' W 093°15'0 0.0
2017-Jan-22 00:22N 30°15' W 093°15'0 0.0
2017-Jan-21 23:25N 30°15' W 093°15'0 0.0
2017-Jan-21 22:31N 30°15' W 093°15'0 0.0
2017-Jan-21 20:33N 30°15' W 093°15'0 0.0
2017-Jan-21 18:32N 30°15' W 093°15'0 0.0
2017-Jan-21 17:33N 30°15' W 093°15'0 0.1
2017-Jan-21 13:33N 30°14' W 093°15'0 0.0
2017-Jan-20 22:32N 30°15' W 093°15'0 0.0
2017-Jan-20 16:33N 30°14' W 093°15'1 1.2
2017-Jan-20 15:33N 30°13' W 093°15'0 0.0
2017-Jan-20 14:33N 30°13' W 093°15'0 0.0
2017-Jan-20 13:33N 30°13' W 093°15'0 0.0
2017-Jan-20 12:33N 30°13' W 093°15'0 0.0
2017-Jan-20 11:33N 30°13' W 093°15'0 0.0
2017-Jan-20 09:16N 30°13' W 093°15'2 2.4
2017-Jan-20 08:33N 30°12' W 093°17'5 4.8
2017-Jan-20 07:33N 30°08' W 093°20'4 3.6
2017-Jan-20 06:33N 30°05' W 093°18'1 1.4
2017-Jan-20 05:33N 30°04' W 093°16'0 0.0
2017-Jan-20 04:33N 30°04' W 093°16'0 0.0
2017-Jan-20 03:33N 30°04' W 093°16'0 0.0
2017-Jan-20 02:33N 30°04' W 093°16'3 2.7
2017-Jan-20 01:33N 30°02' W 093°15'5 4.6
2017-Jan-20 00:33N 29°58' W 093°12'45 5.5
2017-Jan-19 16:31N 29°51' W 092°21'5 5.4
2017-Jan-19 15:33N 29°48' W 092°16'5 5.3
2017-Jan-19 14:33N 29°47' W 092°10'6 6.4
2017-Jan-19 13:33N 29°49' W 092°03'6 6.3
2017-Jan-19 12:32N 29°51' W 091°56'62 3.1
2017-Jan-18 16:33N 29°32' W 090°48'6 5.9
2017-Jan-18 15:33N 29°36' W 090°43'6 5.6
2017-Jan-18 14:33N 29°35' W 090°36'  

Dump ship's entire track history